Time;durP1;ratioP1;P1;durP2;ratioP2;P2;SDS_P1;SDS_P2;PMS_P1;PMS_P2;Temp;Humidity;BMP_temperature;BMP_pressure;BME280_temperature;BME280_humidity;BME280_pressure;Samples;Min_cycle;Max_cycle;Signal;HPM_P1;HPM_P2
2022/01/21 00:01:35;;;;;;;234.43;77.67;;;;;;;;;;5013435;28;20458;-41
2022/01/21 00:04:01;;;;;;;245.40;77.73;;;;;;;;;;5030316;28;20558;-41
2022/01/21 00:06:27;;;;;;;222.57;73.50;;;;;;;;;;5015726;28;20445;-38
2022/01/21 00:08:54;;;;;;;233.47;79.20;;;;;;;;;;5013761;28;20434;-40
2022/01/21 00:11:21;;;;;;;218.87;72.47;;;;;;;;;;5017562;28;20720;-39
2022/01/21 00:13:47;;;;;;;224.30;76.50;;;;;;;;;;5009538;28;20466;-40
2022/01/21 00:16:15;;;;;;;252.67;81.00;;;;;;;;;;5012924;28;20918;-41
2022/01/21 00:18:44;;;;;;;229.97;76.40;;;;;;;;;;5019176;28;20430;-39
2022/01/21 00:32:10;;;;;;;233.50;71.90;;;;;;;;;;5012924;28;20876;-39
2022/01/21 00:34:37;;;;;;;239.03;73.73;;;;;;;;;;5015820;28;20535;-39
2022/01/21 00:37:03;;;;;;;283.63;78.13;;;;;;;;;;5013982;28;20808;-41
2022/01/21 00:39:32;;;;;;;251.90;74.83;;;;;;;;;;5028040;28;20676;-42
2022/01/21 00:42:49;;;;;;;253.30;77.60;;;;;;;;;;5027163;28;20444;-41
2022/01/21 00:44:44;;;;;;;220.33;71.67;;;;;;;;;;5019551;28;20910;-37
2022/01/21 00:47:10;;;;;;;238.07;71.40;;;;;;;;;;5026314;28;20454;-41
2022/01/21 00:49:36;;;;;;;254.20;74.13;;;;;;;;;;5017620;28;21030;-38
2022/01/21 00:52:03;;;;;;;250.87;77.83;;;;;;;;;;5026012;28;20438;-41
2022/01/21 00:54:29;;;;;;;231.87;71.77;;;;;;;;;;5025200;28;20427;-40
2022/01/21 00:56:55;;;;;;;239.93;75.97;;;;;;;;;;5012719;28;20749;-40
2022/01/21 00:59:21;;;;;;;241.40;72.87;;;;;;;;;;5015074;28;20966;-40
2022/01/21 01:01:47;;;;;;;219.13;67.50;;;;;;;;;;5022422;28;20426;-41
2022/01/21 01:04:14;;;;;;;227.73;68.97;;;;;;;;;;5019239;28;20449;-39
2022/01/21 01:06:41;;;;;;;266.63;75.60;;;;;;;;;;5019415;28;20480;-39
2022/01/21 01:09:07;;;;;;;239.37;70.53;;;;;;;;;;5019367;28;21304;-39
2022/01/21 01:22:18;;;;;;;248.30;70.67;;;;;;;;;;5014703;28;20966;-39
2022/01/21 01:28:02;;;;;;;227.50;71.70;;;;;;;;;;5023778;28;21086;-38
2022/01/21 01:30:23;;;;;;;262.20;71.03;;;;;;;;;;5019900;28;20891;-40
2022/01/21 01:32:50;;;;;;;310.03;77.00;;;;;;;;;;5022795;28;20606;-39
2022/01/21 01:35:18;;;;;;;235.70;68.73;;;;;;;;;;5020962;28;20474;-41
2022/01/21 01:38:05;;;;;;;225.07;67.07;;;;;;;;;;5033891;28;20438;-41
2022/01/21 01:40:51;;;;;;;247.10;69.63;;;;;;;;;;5022660;28;20439;-39
2022/01/21 01:51:23;;;;;;;266.70;72.47;;;;;;;;;;5028438;28;20419;-41
2022/01/21 01:54:10;;;;;;;232.77;67.60;;;;;;;;;;5018985;28;20482;-41
2022/01/21 01:56:38;;;;;;;381.70;75.63;;;;;;;;;;5050352;28;21045;-40
2022/01/21 01:59:04;;;;;;;239.40;62.80;;;;;;;;;;5021582;28;20435;-38
2022/01/21 02:01:31;;;;;;;269.97;67.00;;;;;;;;;;5021554;28;20512;-38
2022/01/21 02:03:57;;;;;;;241.37;68.40;;;;;;;;;;5018041;28;20479;-40
2022/01/21 02:06:23;;;;;;;276.97;71.43;;;;;;;;;;5018305;28;20430;-40
2022/01/21 02:08:50;;;;;;;242.47;66.50;;;;;;;;;;5026972;28;20646;-39
2022/01/21 02:11:16;;;;;;;258.37;64.77;;;;;;;;;;5018477;28;20429;-39
2022/01/21 02:13:46;;;;;;;238.33;62.30;;;;;;;;;;5009963;28;20430;-41
2022/01/21 02:16:40;;;;;;;213.57;61.17;;;;;;;;;;5030301;28;20427;-41
2022/01/21 02:21:48;;;;;;;203.83;59.23;;;;;;;;;;5015078;28;20481;-40
2022/01/21 02:24:28;;;;;;;227.93;63.13;;;;;;;;;;5012532;28;20881;-39
2022/01/21 02:27:09;;;;;;;295.57;68.50;;;;;;;;;;5048764;28;20740;-42
2022/01/21 02:29:44;;;;;;;223.73;61.67;;;;;;;;;;5046835;28;20839;-41
2022/01/21 02:32:10;;;;;;;222.23;62.63;;;;;;;;;;5028008;28;20982;-42
2022/01/21 02:34:37;;;;;;;226.10;62.93;;;;;;;;;;5019892;28;20437;-40
2022/01/21 02:37:04;;;;;;;263.57;62.50;;;;;;;;;;5017659;28;20427;-38
2022/01/21 02:39:30;;;;;;;319.20;71.23;;;;;;;;;;5020964;28;20519;-39
2022/01/21 02:41:56;;;;;;;232.57;61.23;;;;;;;;;;5020257;28;20450;-42
2022/01/21 02:44:24;;;;;;;214.27;60.53;;;;;;;;;;5012466;28;20563;-42
2022/01/21 02:46:57;;;;;;;208.17;58.27;;;;;;;;;;5022090;28;20555;-43
2022/01/21 02:49:23;;;;;;;228.70;63.83;;;;;;;;;;5020137;28;20533;-43
2022/01/21 02:51:50;;;;;;;209.83;60.03;;;;;;;;;;5051966;28;20444;-43
2022/01/21 02:54:16;;;;;;;250.97;62.60;;;;;;;;;;5033412;28;20428;-42
2022/01/21 02:56:42;;;;;;;248.50;60.70;;;;;;;;;;5011803;28;20442;-43
2022/01/21 02:59:09;;;;;;;213.17;58.10;;;;;;;;;;5044784;28;20434;-42
2022/01/21 03:01:36;;;;;;;193.60;54.67;;;;;;;;;;5046126;28;20919;-42
2022/01/21 03:04:03;;;;;;;278.80;65.77;;;;;;;;;;5017891;28;20455;-40
2022/01/21 03:06:30;;;;;;;337.83;68.43;;;;;;;;;;5031750;28;20497;-41
2022/01/21 03:08:58;;;;;;;234.77;64.90;;;;;;;;;;5018049;28;20442;-41
2022/01/21 03:11:25;;;;;;;228.73;63.87;;;;;;;;;;5045950;28;20429;-40
2022/01/21 03:13:51;;;;;;;285.00;70.73;;;;;;;;;;5022565;28;20431;-40
2022/01/21 03:16:18;;;;;;;214.67;62.90;;;;;;;;;;5014808;28;20426;-39
2022/01/21 03:18:44;;;;;;;272.90;69.23;;;;;;;;;;5015146;28;20548;-40
2022/01/21 03:21:15;;;;;;;215.90;63.23;;;;;;;;;;5011284;28;20900;-42
2022/01/21 03:23:43;;;;;;;230.40;62.70;;;;;;;;;;5014941;28;20783;-40
2022/01/21 03:26:10;;;;;;;201.40;60.17;;;;;;;;;;5012666;28;20427;-39
2022/01/21 03:28:36;;;;;;;202.30;59.60;;;;;;;;;;5015077;28;21203;-42
2022/01/21 03:31:02;;;;;;;191.53;58.87;;;;;;;;;;5009551;28;20482;-40
2022/01/21 03:33:28;;;;;;;187.27;57.73;;;;;;;;;;5015214;28;21025;-42
2022/01/21 03:35:54;;;;;;;213.63;61.60;;;;;;;;;;5021503;28;20426;-38
2022/01/21 03:38:24;;;;;;;197.80;58.80;;;;;;;;;;5042831;28;21099;-41
2022/01/21 03:40:50;;;;;;;231.70;64.13;;;;;;;;;;5009953;28;20439;-39
2022/01/21 03:43:16;;;;;;;232.63;62.73;;;;;;;;;;5016874;28;20449;-40
2022/01/21 03:45:43;;;;;;;201.27;57.57;;;;;;;;;;5012930;28;20426;-42
2022/01/21 03:48:09;;;;;;;187.53;57.83;;;;;;;;;;5015065;28;20453;-43
2022/01/21 03:50:35;;;;;;;197.97;59.93;;;;;;;;;;5012077;28;20426;-40
2022/01/21 03:53:02;;;;;;;181.07;57.63;;;;;;;;;;5028956;28;20489;-41
2022/01/21 03:55:30;;;;;;;181.70;55.33;;;;;;;;;;5012740;28;21135;-41
2022/01/21 03:57:58;;;;;;;215.20;60.93;;;;;;;;;;5015044;28;20472;-42
2022/01/21 04:00:29;;;;;;;164.87;53.30;;;;;;;;;;5013024;28;20807;-40
2022/01/21 04:02:56;;;;;;;137.07;52.17;;;;;;;;;;5015754;28;21017;-40
2022/01/21 04:05:22;;;;;;;137.83;51.87;;;;;;;;;;5027133;28;21601;-41
2022/01/21 04:07:49;;;;;;;133.73;52.13;;;;;;;;;;5017110;28;20430;-41
2022/01/21 04:10:17;;;;;;;109.50;47.23;;;;;;;;;;5044819;28;20431;-41
2022/01/21 04:12:44;;;;;;;126.23;51.03;;;;;;;;;;5014667;28;20441;-41
2022/01/21 04:15:10;;;;;;;111.33;47.40;;;;;;;;;;5016147;28;20427;-41
2022/01/21 04:17:36;;;;;;;110.07;46.77;;;;;;;;;;5012049;28;20422;-39
2022/01/21 04:20:04;;;;;;;111.77;46.13;;;;;;;;;;5011776;28;20968;-41
2022/01/21 04:22:30;;;;;;;106.60;45.37;;;;;;;;;;5032119;28;20928;-40
2022/01/21 04:24:56;;;;;;;100.37;43.53;;;;;;;;;;5017444;28;20989;-42
2022/01/21 04:27:22;;;;;;;96.47;43.97;;;;;;;;;;5013023;28;20432;-40
2022/01/21 04:29:49;;;;;;;125.90;48.63;;;;;;;;;;5022561;28;20432;-38
2022/01/21 04:32:17;;;;;;;112.87;47.37;;;;;;;;;;5030783;28;21025;-42
2022/01/21 04:34:43;;;;;;;118.23;47.83;;;;;;;;;;5014243;28;20438;-42
2022/01/21 04:37:12;;;;;;;122.13;47.77;;;;;;;;;;5018096;28;20424;-39
2022/01/21 04:39:49;;;;;;;117.63;48.83;;;;;;;;;;5047662;28;20431;-42
2022/01/21 04:47:29;;;;;;;123.40;50.83;;;;;;;;;;5014269;28;21163;-40
2022/01/21 04:49:56;;;;;;;114.37;46.23;;;;;;;;;;5013763;28;20423;-39
2022/01/21 04:52:22;;;;;;;106.00;47.13;;;;;;;;;;5050589;28;21420;-36
2022/01/21 04:54:49;;;;;;;110.17;47.80;;;;;;;;;;5020412;28;20418;-35
2022/01/21 04:57:16;;;;;;;117.27;49.87;;;;;;;;;;5049451;28;21134;-36
2022/01/21 04:59:42;;;;;;;103.27;45.87;;;;;;;;;;5013285;28;20894;-40
2022/01/21 05:02:11;;;;;;;110.47;47.07;;;;;;;;;;5013848;28;20877;-39
2022/01/21 05:04:37;;;;;;;118.43;49.27;;;;;;;;;;5035954;28;20464;-41
2022/01/21 05:07:06;;;;;;;112.00;47.17;;;;;;;;;;5022568;28;20492;-38
2022/01/21 05:09:34;;;;;;;110.57;47.50;;;;;;;;;;5051744;28;20911;-40
2022/01/21 05:12:02;;;;;;;102.80;45.00;;;;;;;;;;5018226;28;20710;-41
2022/01/21 05:17:11;;;;;;;123.83;51.47;;;;;;;;;;5019336;28;20426;-38
2022/01/21 05:19:40;;;;;;;117.33;48.80;;;;;;;;;;5050600;28;20886;-40
2022/01/21 05:22:06;;;;;;;120.13;49.40;;;;;;;;;;5016819;28;20473;-40
2022/01/21 05:24:32;;;;;;;103.63;43.93;;;;;;;;;;5022875;28;20463;-39
2022/01/21 05:27:01;;;;;;;109.27;46.33;;;;;;;;;;5031910;28;20454;-36
2022/01/21 05:29:31;;;;;;;103.57;45.37;;;;;;;;;;5022216;28;20412;-37
2022/01/21 05:32:00;;;;;;;102.87;46.13;;;;;;;;;;5015672;28;20504;-40
2022/01/21 05:34:26;;;;;;;110.50;46.80;;;;;;;;;;5017902;28;20477;-38
2022/01/21 05:36:53;;;;;;;121.63;48.17;;;;;;;;;;5048256;28;20963;-39
2022/01/21 05:39:20;;;;;;;128.80;51.33;;;;;;;;;;5050826;28;20717;-39
2022/01/21 05:41:51;;;;;;;123.83;52.47;;;;;;;;;;5017525;28;20446;-37
2022/01/21 05:47:06;;;;;;;136.13;53.63;;;;;;;;;;5027800;28;20451;-36
2022/01/21 05:49:33;;;;;;;164.03;60.63;;;;;;;;;;5020423;28;20434;-40
2022/01/21 05:52:19;;;;;;;135.17;54.17;;;;;;;;;;5014104;28;20423;-36
2022/01/21 05:54:46;;;;;;;130.67;52.50;;;;;;;;;;5017468;28;21973;-37
2022/01/21 05:57:15;;;;;;;131.50;52.63;;;;;;;;;;5020426;28;20437;-41
2022/01/21 05:59:41;;;;;;;133.73;54.20;;;;;;;;;;5017859;28;20755;-40
2022/01/21 06:02:11;;;;;;;130.07;53.33;;;;;;;;;;5050552;28;21242;-39
2022/01/21 06:04:43;;;;;;;113.03;50.03;;;;;;;;;;5037368;28;20945;-39
2022/01/21 06:07:10;;;;;;;129.00;55.47;;;;;;;;;;5030695;28;20821;-40
2022/01/21 06:09:37;;;;;;;117.10;52.33;;;;;;;;;;5053755;28;20415;-40
2022/01/21 06:12:06;;;;;;;110.27;50.50;;;;;;;;;;5019874;28;20442;-38
2022/01/21 06:14:32;;;;;;;108.37;50.20;;;;;;;;;;5022349;28;20440;-39
2022/01/21 06:16:58;;;;;;;105.60;49.33;;;;;;;;;;5032798;28;20430;-38
2022/01/21 06:19:24;;;;;;;118.43;53.23;;;;;;;;;;5018111;28;20439;-38
2022/01/21 06:21:50;;;;;;;144.60;58.07;;;;;;;;;;5017363;28;20443;-41
2022/01/21 06:24:16;;;;;;;180.30;69.93;;;;;;;;;;5016142;28;20842;-39
2022/01/21 06:26:44;;;;;;;242.10;87.80;;;;;;;;;;5029187;28;20496;-38
2022/01/21 06:29:12;;;;;;;219.00;81.13;;;;;;;;;;5023045;28;20426;-40
2022/01/21 06:31:39;;;;;;;227.10;83.80;;;;;;;;;;5038940;28;20419;-37
2022/01/21 06:34:05;;;;;;;210.53;80.67;;;;;;;;;;5024080;28;20427;-41
2022/01/21 06:36:31;;;;;;;192.60;75.63;;;;;;;;;;5052220;28;21022;-38
2022/01/21 06:39:04;;;;;;;189.10;73.23;;;;;;;;;;5022128;28;20579;-39
2022/01/21 06:41:32;;;;;;;177.77;70.43;;;;;;;;;;5024202;28;20438;-41
2022/01/21 06:43:58;;;;;;;180.33;71.70;;;;;;;;;;5053944;28;21578;-40
2022/01/21 06:46:24;;;;;;;172.77;68.97;;;;;;;;;;5020533;28;20472;-40
2022/01/21 06:48:50;;;;;;;160.90;66.17;;;;;;;;;;5020699;28;20442;-39
2022/01/21 06:51:16;;;;;;;160.53;67.80;;;;;;;;;;5053950;28;21173;-47
2022/01/21 06:53:43;;;;;;;168.90;68.07;;;;;;;;;;5033476;28;20919;-41
2022/01/21 06:56:09;;;;;;;176.57;69.10;;;;;;;;;;5021665;28;20430;-39
2022/01/21 06:58:35;;;;;;;179.70;72.07;;;;;;;;;;5019676;28;20469;-40
2022/01/21 07:01:01;;;;;;;184.33;76.33;;;;;;;;;;5049958;28;21445;-39
2022/01/21 07:03:27;;;;;;;164.70;71.27;;;;;;;;;;5019580;28;20427;-40
2022/01/21 07:05:56;;;;;;;179.63;76.17;;;;;;;;;;5022711;28;20458;-39
2022/01/21 07:08:22;;;;;;;193.37;79.43;;;;;;;;;;5019730;28;20564;-39
2022/01/21 07:10:48;;;;;;;210.57;84.63;;;;;;;;;;5032500;28;20560;-39
2022/01/21 07:13:14;;;;;;;183.10;76.20;;;;;;;;;;5035800;28;20418;-38
2022/01/21 07:15:41;;;;;;;187.83;76.73;;;;;;;;;;5022013;28;20546;-38
2022/01/21 07:18:07;;;;;;;221.77;86.43;;;;;;;;;;5017297;28;20555;-40
2022/01/21 07:20:33;;;;;;;197.53;80.00;;;;;;;;;;5016420;28;21259;-38
2022/01/21 07:23:02;;;;;;;215.03;81.27;;;;;;;;;;5021808;28;20434;-37
2022/01/21 07:25:28;;;;;;;215.10;81.63;;;;;;;;;;5016247;28;20506;-37
2022/01/21 07:27:55;;;;;;;223.97;79.90;;;;;;;;;;5013173;28;20522;-39
2022/01/21 07:30:21;;;;;;;198.67;78.80;;;;;;;;;;5041439;28;20440;-42
2022/01/21 07:32:47;;;;;;;187.50;78.07;;;;;;;;;;5059035;28;20372;-40
2022/01/21 07:35:14;;;;;;;201.87;77.67;;;;;;;;;;5054379;28;21219;-40
2022/01/21 07:37:41;;;;;;;212.43;81.23;;;;;;;;;;5008546;28;20433;-40
2022/01/21 07:40:13;;;;;;;196.13;76.70;;;;;;;;;;5027306;28;20435;-37
2022/01/21 07:42:39;;;;;;;198.77;77.00;;;;;;;;;;5018067;28;21122;-38
2022/01/21 07:45:05;;;;;;;203.30;80.97;;;;;;;;;;5046436;28;20882;-41
2022/01/21 07:47:31;;;;;;;198.73;76.07;;;;;;;;;;5026758;28;20414;-41
2022/01/21 07:50:00;;;;;;;184.00;71.53;;;;;;;;;;5044890;28;20433;-40
2022/01/21 07:52:29;;;;;;;196.30;73.83;;;;;;;;;;5032885;28;20430;-42
2022/01/21 07:54:55;;;;;;;202.83;75.87;;;;;;;;;;5027723;28;20640;-37
2022/01/21 07:57:21;;;;;;;184.43;74.00;;;;;;;;;;5008444;28;20949;-41
2022/01/21 07:59:47;;;;;;;181.30;73.60;;;;;;;;;;5015305;28;20926;-40
2022/01/21 08:02:17;;;;;;;187.63;74.93;;;;;;;;;;5022853;28;20750;-39
2022/01/21 08:04:43;;;;;;;202.37;77.87;;;;;;;;;;5050892;28;21266;-37
2022/01/21 08:07:17;;;;;;;192.37;71.00;;;;;;;;;;5009036;28;21094;-42
2022/01/21 08:09:43;;;;;;;185.90;71.33;;;;;;;;;;5010776;28;20423;-42
2022/01/21 08:12:11;;;;;;;195.00;70.40;;;;;;;;;;5011321;28;20433;-40
2022/01/21 08:14:37;;;;;;;201.13;72.67;;;;;;;;;;5015015;28;20542;-39
2022/01/21 08:17:03;;;;;;;194.20;72.67;;;;;;;;;;5016020;28;20422;-40
2022/01/21 08:19:30;;;;;;;188.57;71.30;;;;;;;;;;5010271;28;20862;-42
2022/01/21 08:21:58;;;;;;;183.90;72.10;;;;;;;;;;5047777;28;21287;-40
2022/01/21 08:24:27;;;;;;;181.63;67.73;;;;;;;;;;5018608;28;20492;-42
2022/01/21 08:26:53;;;;;;;191.50;71.50;;;;;;;;;;5016659;28;20681;-42
2022/01/21 08:29:20;;;;;;;179.00;67.77;;;;;;;;;;5013763;28;20431;-38
2022/01/21 08:31:46;;;;;;;178.27;70.17;;;;;;;;;;5049513;28;20437;-43
2022/01/21 08:34:13;;;;;;;186.07;72.67;;;;;;;;;;5030108;28;21171;-38
2022/01/21 08:36:39;;;;;;;181.53;71.77;;;;;;;;;;5012101;28;20883;-42
2022/01/21 08:39:06;;;;;;;177.87;73.30;;;;;;;;;;5014739;28;20430;-40
2022/01/21 08:41:35;;;;;;;202.97;78.03;;;;;;;;;;5050906;28;20439;-41
2022/01/21 08:44:01;;;;;;;190.97;76.23;;;;;;;;;;5021492;28;20455;-38
2022/01/21 08:46:30;;;;;;;206.17;77.40;;;;;;;;;;5021515;28;20416;-39
2022/01/21 08:48:56;;;;;;;180.47;73.67;;;;;;;;;;5022721;28;20434;-41
2022/01/21 08:51:27;;;;;;;168.20;71.83;;;;;;;;;;5022251;28;21348;-39
2022/01/21 08:53:53;;;;;;;174.47;71.30;;;;;;;;;;5019786;28;20438;-43
2022/01/21 08:56:22;;;;;;;183.70;73.17;;;;;;;;;;5019834;28;20511;-40
2022/01/21 08:58:49;;;;;;;200.00;77.07;;;;;;;;;;5017766;28;20426;-42
2022/01/21 09:01:16;;;;;;;197.83;77.43;;;;;;;;;;5014527;28;20430;-41
2022/01/21 09:03:42;;;;;;;200.10;76.60;;;;;;;;;;5019014;28;20453;-38
2022/01/21 09:06:18;;;;;;;201.03;78.77;;;;;;;;;;5050455;28;20430;-40
2022/01/21 09:08:46;;;;;;;192.63;74.00;;;;;;;;;;5053714;28;20424;-42
2022/01/21 09:11:13;;;;;;;195.00;76.03;;;;;;;;;;5037855;28;21384;-41
2022/01/21 09:13:41;;;;;;;175.50;69.00;;;;;;;;;;5019045;28;20425;-42
2022/01/21 09:16:08;;;;;;;190.87;75.83;;;;;;;;;;5025451;28;21147;-41
2022/01/21 09:18:46;;;;;;;181.40;72.10;;;;;;;;;;5037957;28;21377;-42
2022/01/21 09:21:12;;;;;;;179.47;71.80;;;;;;;;;;5039970;28;20414;-43
2022/01/21 09:23:41;;;;;;;170.93;69.67;;;;;;;;;;5024407;28;21329;-43
2022/01/21 09:26:11;;;;;;;167.13;67.93;;;;;;;;;;5036496;28;20450;-42
2022/01/21 09:28:37;;;;;;;167.63;69.90;;;;;;;;;;5037738;28;20422;-43
2022/01/21 09:31:05;;;;;;;175.90;72.40;;;;;;;;;;5024909;28;20509;-40
2022/01/21 09:33:34;;;;;;;175.03;71.63;;;;;;;;;;5039893;28;20432;-42
2022/01/21 09:36:03;;;;;;;171.00;68.33;;;;;;;;;;5022774;28;20419;-43
2022/01/21 09:38:29;;;;;;;176.47;73.53;;;;;;;;;;5025868;28;20412;-40
2022/01/21 09:40:55;;;;;;;165.20;69.30;;;;;;;;;;5055744;28;20411;-42
2022/01/21 09:43:22;;;;;;;173.43;70.23;;;;;;;;;;5022335;28;21342;-41
2022/01/21 09:45:52;;;;;;;159.53;68.10;;;;;;;;;;5035005;28;20462;-41
2022/01/21 09:48:24;;;;;;;162.90;69.67;;;;;;;;;;5027557;28;20520;-41
2022/01/21 09:50:54;;;;;;;161.20;67.33;;;;;;;;;;5023489;28;20425;-41
2022/01/21 09:53:27;;;;;;;172.30;71.47;;;;;;;;;;5025536;28;20407;-40
2022/01/21 09:55:53;;;;;;;175.67;71.10;;;;;;;;;;5038195;28;21381;-42
2022/01/21 09:58:19;;;;;;;165.90;66.33;;;;;;;;;;5050694;28;20426;-37
2022/01/21 10:00:46;;;;;;;170.10;70.27;;;;;;;;;;5025031;28;20435;-40
2022/01/21 10:03:12;;;;;;;171.90;68.67;;;;;;;;;;5028231;28;20518;-41
2022/01/21 10:05:38;;;;;;;168.33;67.17;;;;;;;;;;5022629;28;20570;-42
2022/01/21 10:08:07;;;;;;;153.47;66.83;;;;;;;;;;5023433;28;20525;-38
2022/01/21 10:10:34;;;;;;;153.00;64.03;;;;;;;;;;5022804;28;21183;-38
2022/01/21 10:13:03;;;;;;;147.07;64.40;;;;;;;;;;5022320;28;20422;-42
2022/01/21 10:15:30;;;;;;;164.40;68.70;;;;;;;;;;5024292;28;20512;-42
2022/01/21 10:18:02;;;;;;;156.17;64.80;;;;;;;;;;5036544;28;20527;-43
2022/01/21 10:20:29;;;;;;;150.23;62.90;;;;;;;;;;5050585;28;20431;-42
2022/01/21 10:23:10;;;;;;;144.93;63.47;;;;;;;;;;5034982;28;20424;-42
2022/01/21 10:25:40;;;;;;;152.63;63.63;;;;;;;;;;5055884;28;20466;-40
2022/01/21 10:28:17;;;;;;;144.50;62.17;;;;;;;;;;5022757;28;20422;-39
2022/01/21 10:30:44;;;;;;;157.30;64.23;;;;;;;;;;5020612;28;20624;-42
2022/01/21 10:33:27;;;;;;;149.30;61.70;;;;;;;;;;5023511;28;20432;-41
2022/01/21 10:36:09;;;;;;;141.70;62.00;;;;;;;;;;5021625;28;20476;-39
2022/01/21 10:38:40;;;;;;;131.43;58.13;;;;;;;;;;5051103;28;20431;-42
2022/01/21 10:41:08;;;;;;;132.83;58.93;;;;;;;;;;5037499;28;20426;-43
2022/01/21 10:43:36;;;;;;;137.83;58.17;;;;;;;;;;5021069;28;20438;-39
2022/01/21 10:46:03;;;;;;;135.30;58.57;;;;;;;;;;5038910;28;20430;-43
2022/01/21 10:48:33;;;;;;;139.53;59.87;;;;;;;;;;5027672;28;20427;-39
2022/01/21 10:51:18;;;;;;;129.67;58.20;;;;;;;;;;5017696;28;20424;-42
2022/01/21 10:53:45;;;;;;;138.03;59.80;;;;;;;;;;5017632;28;20838;-40
2022/01/21 10:56:12;;;;;;;130.83;55.77;;;;;;;;;;5021690;28;21009;-41
2022/01/21 10:58:42;;;;;;;136.60;58.63;;;;;;;;;;5020804;28;20427;-42
2022/01/21 11:01:17;;;;;;;130.07;56.70;;;;;;;;;;5033882;28;20459;-43
2022/01/21 11:04:01;;;;;;;126.83;56.87;;;;;;;;;;5032736;28;20447;-42
2022/01/21 11:06:44;;;;;;;128.43;56.53;;;;;;;;;;5035239;28;20406;-42
2022/01/21 11:09:17;;;;;;;128.53;56.27;;;;;;;;;;5024736;28;20442;-41
2022/01/21 11:11:44;;;;;;;126.83;55.37;;;;;;;;;;5054677;28;20537;-41
2022/01/21 11:14:12;;;;;;;132.17;56.07;;;;;;;;;;5020918;28;21973;-42
2022/01/21 11:16:43;;;;;;;117.83;53.07;;;;;;;;;;5051763;28;20431;-41
2022/01/21 11:19:12;;;;;;;130.37;56.20;;;;;;;;;;5022071;28;20436;-41
2022/01/21 11:21:45;;;;;;;126.73;55.23;;;;;;;;;;5051683;28;20476;-39
2022/01/21 11:24:15;;;;;;;128.87;56.03;;;;;;;;;;5050162;28;21352;-39
2022/01/21 11:26:42;;;;;;;132.10;57.07;;;;;;;;;;5019839;28;20426;-41
2022/01/21 11:29:09;;;;;;;129.93;56.53;;;;;;;;;;5025976;28;21243;-41
2022/01/21 11:31:35;;;;;;;123.50;54.37;;;;;;;;;;5020893;28;21107;-43
2022/01/21 11:34:02;;;;;;;120.83;56.30;;;;;;;;;;5021677;28;20538;-39
2022/01/21 11:36:28;;;;;;;123.37;56.13;;;;;;;;;;5021973;28;20427;-42
2022/01/21 11:38:55;;;;;;;123.23;52.13;;;;;;;;;;5011693;28;20862;-42
2022/01/21 11:41:26;;;;;;;116.40;51.53;;;;;;;;;;5020739;28;20443;-42
2022/01/21 11:43:59;;;;;;;111.23;52.13;;;;;;;;;;5025662;28;20462;-38
2022/01/21 11:46:40;;;;;;;131.10;56.10;;;;;;;;;;5019994;28;21315;-42
2022/01/21 11:49:09;;;;;;;127.37;55.60;;;;;;;;;;5028894;28;20429;-41
2022/01/21 11:51:36;;;;;;;122.73;55.37;;;;;;;;;;5020824;28;20421;-42
2022/01/21 11:54:05;;;;;;;129.73;56.97;;;;;;;;;;5018662;28;20430;-43
2022/01/21 11:56:38;;;;;;;122.90;55.57;;;;;;;;;;5021502;28;20478;-44
2022/01/21 11:59:12;;;;;;;115.50;54.70;;;;;;;;;;5039102;28;20428;-42
2022/01/21 12:01:41;;;;;;;134.10;56.63;;;;;;;;;;5019003;28;21292;-43
2022/01/21 12:04:08;;;;;;;127.00;56.00;;;;;;;;;;5022572;28;20580;-43
2022/01/21 12:06:36;;;;;;;121.00;55.23;;;;;;;;;;5025949;28;20580;-42
2022/01/21 12:09:04;;;;;;;121.10;53.63;;;;;;;;;;5037525;28;21101;-39
2022/01/21 12:11:36;;;;;;;123.83;55.67;;;;;;;;;;5025738;28;20433;-43
2022/01/21 12:14:06;;;;;;;131.73;55.77;;;;;;;;;;5019000;28;21219;-41
2022/01/21 12:16:50;;;;;;;127.77;55.07;;;;;;;;;;5018508;28;20434;-42
2022/01/21 12:19:26;;;;;;;114.57;53.00;;;;;;;;;;5019041;28;20426;-43
2022/01/21 12:21:53;;;;;;;117.23;52.40;;;;;;;;;;5053369;28;20419;-42
2022/01/21 12:24:55;;;;;;;120.47;54.80;;;;;;;;;;5024614;28;20477;-42
2022/01/21 12:27:23;;;;;;;130.90;55.80;;;;;;;;;;5025392;28;20517;-40
2022/01/21 12:29:50;;;;;;;115.90;54.07;;;;;;;;;;5037203;28;20752;-42
2022/01/21 12:34:58;;;;;;;115.83;53.67;;;;;;;;;;5017771;28;20752;-41
2022/01/21 12:37:37;;;;;;;119.87;53.37;;;;;;;;;;5037522;28;20518;-41
2022/01/21 12:40:04;;;;;;;132.57;58.10;;;;;;;;;;5037781;28;20470;-43
2022/01/21 12:42:35;;;;;;;126.47;56.03;;;;;;;;;;5025149;28;20438;-42
2022/01/21 12:45:07;;;;;;;124.70;55.37;;;;;;;;;;5040078;28;21329;-42
2022/01/21 12:47:39;;;;;;;115.83;53.80;;;;;;;;;;5025745;28;20525;-44
2022/01/21 12:50:16;;;;;;;122.77;59.03;;;;;;;;;;5029194;28;20430;-43
2022/01/21 12:52:52;;;;;;;121.40;54.23;;;;;;;;;;5040494;28;21021;-42
2022/01/21 12:56:02;;;;;;;117.50;55.13;;;;;;;;;;5027210;28;21122;-43
2022/01/21 12:58:28;;;;;;;119.17;55.27;;;;;;;;;;5028147;28;20510;-41
2022/01/21 13:01:01;;;;;;;119.33;56.50;;;;;;;;;;5025747;28;20887;-43
2022/01/21 13:03:29;;;;;;;115.07;54.43;;;;;;;;;;5037480;28;20554;-44
2022/01/21 13:06:00;;;;;;;122.00;55.57;;;;;;;;;;5037863;28;20985;-41
2022/01/21 13:08:29;;;;;;;120.53;56.17;;;;;;;;;;5026928;28;20422;-43
2022/01/21 13:10:56;;;;;;;111.97;55.37;;;;;;;;;;5028643;28;20419;-44
2022/01/21 13:13:48;;;;;;;129.13;60.17;;;;;;;;;;5023871;28;20418;-42
2022/01/21 13:16:24;;;;;;;125.40;59.03;;;;;;;;;;5025897;28;20425;-43
2022/01/21 13:18:51;;;;;;;126.60;59.17;;;;;;;;;;5026442;28;20537;-44
2022/01/21 13:21:17;;;;;;;120.20;57.97;;;;;;;;;;5029470;28;20419;-43
2022/01/21 13:23:55;;;;;;;120.73;57.50;;;;;;;;;;5023096;28;20481;-44
2022/01/21 13:26:23;;;;;;;116.97;56.97;;;;;;;;;;5024441;28;20422;-42
2022/01/21 13:29:00;;;;;;;113.90;55.90;;;;;;;;;;5028749;28;20672;-43
2022/01/21 13:31:28;;;;;;;114.67;57.30;;;;;;;;;;5027805;28;21008;-43
2022/01/21 13:34:05;;;;;;;119.17;57.50;;;;;;;;;;5041453;28;20449;-40
2022/01/21 13:36:42;;;;;;;119.57;56.70;;;;;;;;;;5023268;28;20438;-42
2022/01/21 13:39:15;;;;;;;113.63;56.20;;;;;;;;;;5037859;28;20449;-43
2022/01/21 13:41:56;;;;;;;124.90;57.93;;;;;;;;;;5023500;28;20438;-43
2022/01/21 13:44:42;;;;;;;119.27;57.40;;;;;;;;;;5029792;28;20898;-41
2022/01/21 13:47:23;;;;;;;121.57;57.77;;;;;;;;;;5025676;28;21277;-42
2022/01/21 13:49:50;;;;;;;116.53;56.30;;;;;;;;;;5021362;28;21329;-43
2022/01/21 13:52:16;;;;;;;124.83;59.40;;;;;;;;;;5027455;28;20417;-43
2022/01/21 13:54:47;;;;;;;120.03;58.00;;;;;;;;;;5022298;28;20446;-41
2022/01/21 13:57:15;;;;;;;113.10;54.63;;;;;;;;;;5023930;28;20429;-42
2022/01/21 13:59:48;;;;;;;116.40;55.13;;;;;;;;;;5023325;28;20419;-43
2022/01/21 14:02:18;;;;;;;118.33;54.13;;;;;;;;;;5023488;28;20433;-43
2022/01/21 14:04:55;;;;;;;122.20;54.27;;;;;;;;;;5054462;28;20458;-39
2022/01/21 14:07:29;;;;;;;121.77;55.40;;;;;;;;;;5023456;28;20475;-44
2022/01/21 14:09:56;;;;;;;112.33;54.00;;;;;;;;;;5027136;28;20434;-43
2022/01/21 14:12:25;;;;;;;121.00;54.10;;;;;;;;;;5025782;28;20429;-44
2022/01/21 14:14:54;;;;;;;118.03;56.17;;;;;;;;;;5023870;28;20485;-41
2022/01/21 14:17:26;;;;;;;129.23;60.67;;;;;;;;;;5023483;28;20435;-44
2022/01/21 14:19:54;;;;;;;127.47;58.87;;;;;;;;;;5023307;28;20426;-43
2022/01/21 14:22:21;;;;;;;131.23;62.67;;;;;;;;;;5019251;28;21301;-43
2022/01/21 14:24:48;;;;;;;122.93;57.57;;;;;;;;;;5054474;28;20752;-43
2022/01/21 14:27:19;;;;;;;127.33;59.90;;;;;;;;;;5021733;28;21298;-41
2022/01/21 14:29:49;;;;;;;123.83;59.63;;;;;;;;;;5055242;28;20488;-44
2022/01/21 14:32:16;;;;;;;119.60;57.93;;;;;;;;;;5024089;28;20437;-42
2022/01/21 14:34:43;;;;;;;125.37;60.13;;;;;;;;;;5029212;28;21079;-41
2022/01/21 14:37:12;;;;;;;121.17;59.20;;;;;;;;;;5017280;28;21246;-43
2022/01/21 14:39:39;;;;;;;123.87;60.27;;;;;;;;;;5020326;28;20431;-43
2022/01/21 14:42:06;;;;;;;122.63;60.43;;;;;;;;;;5021699;28;20447;-40
2022/01/21 14:44:37;;;;;;;124.27;60.90;;;;;;;;;;5025310;28;20458;-42
2022/01/21 14:47:07;;;;;;;122.20;60.13;;;;;;;;;;5020027;28;20426;-43
2022/01/21 14:49:33;;;;;;;129.77;60.10;;;;;;;;;;5021798;28;20878;-52
2022/01/21 14:52:04;;;;;;;133.00;62.57;;;;;;;;;;5025227;28;20415;-41
2022/01/21 14:54:37;;;;;;;139.77;65.30;;;;;;;;;;5021005;28;20479;-39
2022/01/21 14:57:05;;;;;;;129.20;60.77;;;;;;;;;;5028183;28;20434;-42
2022/01/21 14:59:32;;;;;;;127.63;61.47;;;;;;;;;;5021420;28;20435;-42
2022/01/21 15:02:03;;;;;;;129.10;61.80;;;;;;;;;;5026457;28;20481;-40
2022/01/21 15:04:35;;;;;;;131.03;62.50;;;;;;;;;;5053234;28;20465;-39